METAR Data
IDs: Format: Raw Decoded Include TAF

Data at: 0313 UTC 25 Feb 2021

FAWB 242200Z AUTO 13005KT //// // ////// 20/16 Q1018